sensor_id;sensor_type;location;lat;lon;timestamp;P1;durP1;ratioP1;P2;durP2;ratioP2
19739;SDS011;10027;51.066;13.768;2022-07-01T00:02:16;6.90;;;4.07;;
19739;SDS011;10027;51.066;13.768;2022-07-01T00:04:44;6.30;;;4.57;;
19739;SDS011;10027;51.066;13.768;2022-07-01T00:07:11;7.93;;;4.80;;
19739;SDS011;10027;51.066;13.768;2022-07-01T00:09:38;6.60;;;4.70;;
19739;SDS011;10027;51.066;13.768;2022-07-01T00:12:06;5.60;;;4.10;;
19739;SDS011;10027;51.066;13.768;2022-07-01T00:14:33;7.00;;;4.20;;
19739;SDS011;10027;51.066;13.768;2022-07-01T00:17:01;8.10;;;5.00;;
19739;SDS011;10027;51.066;13.768;2022-07-01T00:19:28;6.77;;;4.90;;
19739;SDS011;10027;51.066;13.768;2022-07-01T00:21:55;6.13;;;4.27;;
19739;SDS011;10027;51.066;13.768;2022-07-01T00:24:22;6.47;;;4.53;;
19739;SDS011;10027;51.066;13.768;2022-07-01T00:26:49;6.20;;;4.50;;
19739;SDS011;10027;51.066;13.768;2022-07-01T00:29:18;6.43;;;4.37;;
19739;SDS011;10027;51.066;13.768;2022-07-01T00:31:45;5.10;;;4.20;;
19739;SDS011;10027;51.066;13.768;2022-07-01T00:34:13;7.03;;;4.70;;
19739;SDS011;10027;51.066;13.768;2022-07-01T00:36:40;6.97;;;4.57;;
19739;SDS011;10027;51.066;13.768;2022-07-01T00:39:07;5.80;;;4.00;;
19739;SDS011;10027;51.066;13.768;2022-07-01T00:41:34;5.57;;;4.30;;
19739;SDS011;10027;51.066;13.768;2022-07-01T00:44:01;6.73;;;4.47;;
19739;SDS011;10027;51.066;13.768;2022-07-01T00:46:28;6.47;;;4.60;;
19739;SDS011;10027;51.066;13.768;2022-07-01T00:48:57;7.50;;;5.07;;
19739;SDS011;10027;51.066;13.768;2022-07-01T00:51:26;7.90;;;4.67;;
19739;SDS011;10027;51.066;13.768;2022-07-01T00:53:55;7.23;;;4.90;;
19739;SDS011;10027;51.066;13.768;2022-07-01T00:56:24;7.93;;;4.43;;
19739;SDS011;10027;51.066;13.768;2022-07-01T00:58:51;6.70;;;5.00;;
19739;SDS011;10027;51.066;13.768;2022-07-01T01:01:19;7.57;;;4.40;;
19739;SDS011;10027;51.066;13.768;2022-07-01T01:03:47;7.20;;;5.03;;
19739;SDS011;10027;51.066;13.768;2022-07-01T01:06:15;6.43;;;4.70;;
19739;SDS011;10027;51.066;13.768;2022-07-01T01:08:42;5.70;;;4.47;;
19739;SDS011;10027;51.066;13.768;2022-07-01T01:11:09;6.90;;;4.80;;
19739;SDS011;10027;51.066;13.768;2022-07-01T01:13:37;6.00;;;4.50;;
19739;SDS011;10027;51.066;13.768;2022-07-01T01:16:04;5.90;;;4.60;;
19739;SDS011;10027;51.066;13.768;2022-07-01T01:18:31;6.67;;;4.60;;
19739;SDS011;10027;51.066;13.768;2022-07-01T01:21:00;6.57;;;4.70;;
19739;SDS011;10027;51.066;13.768;2022-07-01T01:23:27;7.27;;;4.60;;
19739;SDS011;10027;51.066;13.768;2022-07-01T01:25:54;8.10;;;5.20;;
19739;SDS011;10027;51.066;13.768;2022-07-01T01:28:22;6.87;;;4.43;;
19739;SDS011;10027;51.066;13.768;2022-07-01T01:30:50;7.83;;;4.90;;
19739;SDS011;10027;51.066;13.768;2022-07-01T01:33:18;6.63;;;4.90;;
19739;SDS011;10027;51.066;13.768;2022-07-01T01:35:45;5.70;;;4.07;;
19739;SDS011;10027;51.066;13.768;2022-07-01T01:38:13;7.70;;;4.53;;
19739;SDS011;10027;51.066;13.768;2022-07-01T01:40:40;7.03;;;4.60;;
19739;SDS011;10027;51.066;13.768;2022-07-01T01:43:07;6.77;;;4.57;;
19739;SDS011;10027;51.066;13.768;2022-07-01T01:45:34;6.03;;;4.47;;
19739;SDS011;10027;51.066;13.768;2022-07-01T01:48:01;7.57;;;4.83;;
19739;SDS011;10027;51.066;13.768;2022-07-01T01:50:29;6.83;;;4.63;;
19739;SDS011;10027;51.066;13.768;2022-07-01T01:52:56;7.37;;;5.10;;
19739;SDS011;10027;51.066;13.768;2022-07-01T01:55:23;7.50;;;4.90;;
19739;SDS011;10027;51.066;13.768;2022-07-01T01:57:50;6.30;;;4.43;;
19739;SDS011;10027;51.066;13.768;2022-07-01T02:00:17;7.10;;;4.47;;
19739;SDS011;10027;51.066;13.768;2022-07-01T02:02:45;6.00;;;5.00;;
19739;SDS011;10027;51.066;13.768;2022-07-01T02:05:12;7.00;;;4.97;;
19739;SDS011;10027;51.066;13.768;2022-07-01T02:07:40;6.53;;;4.57;;
19739;SDS011;10027;51.066;13.768;2022-07-01T02:10:08;6.53;;;4.50;;
19739;SDS011;10027;51.066;13.768;2022-07-01T02:12:35;7.27;;;4.93;;
19739;SDS011;10027;51.066;13.768;2022-07-01T02:15:02;6.97;;;4.57;;
19739;SDS011;10027;51.066;13.768;2022-07-01T02:17:29;7.57;;;4.80;;
19739;SDS011;10027;51.066;13.768;2022-07-01T02:19:56;7.47;;;4.43;;
19739;SDS011;10027;51.066;13.768;2022-07-01T02:22:24;6.03;;;4.43;;
19739;SDS011;10027;51.066;13.768;2022-07-01T02:24:51;6.40;;;4.50;;
19739;SDS011;10027;51.066;13.768;2022-07-01T02:27:18;6.67;;;4.80;;
19739;SDS011;10027;51.066;13.768;2022-07-01T02:29:45;6.37;;;4.80;;
19739;SDS011;10027;51.066;13.768;2022-07-01T02:32:12;6.77;;;4.70;;
19739;SDS011;10027;51.066;13.768;2022-07-01T02:34:39;6.63;;;4.43;;
19739;SDS011;10027;51.066;13.768;2022-07-01T02:37:07;6.93;;;4.90;;
19739;SDS011;10027;51.066;13.768;2022-07-01T02:39:34;7.00;;;4.63;;
19739;SDS011;10027;51.066;13.768;2022-07-01T02:42:02;6.00;;;4.23;;
19739;SDS011;10027;51.066;13.768;2022-07-01T02:44:47;7.23;;;4.63;;
19739;SDS011;10027;51.066;13.768;2022-07-01T02:47:15;6.87;;;4.37;;
19739;SDS011;10027;51.066;13.768;2022-07-01T02:49:42;6.70;;;4.57;;
19739;SDS011;10027;51.066;13.768;2022-07-01T02:52:09;7.53;;;4.60;;
19739;SDS011;10027;51.066;13.768;2022-07-01T02:54:36;6.57;;;4.50;;
19739;SDS011;10027;51.066;13.768;2022-07-01T02:57:04;5.43;;;4.27;;
19739;SDS011;10027;51.066;13.768;2022-07-01T02:59:31;6.70;;;4.73;;
19739;SDS011;10027;51.066;13.768;2022-07-01T03:01:58;5.60;;;4.57;;
19739;SDS011;10027;51.066;13.768;2022-07-01T03:04:26;5.53;;;4.13;;
19739;SDS011;10027;51.066;13.768;2022-07-01T03:06:53;6.23;;;4.70;;
19739;SDS011;10027;51.066;13.768;2022-07-01T03:09:21;5.50;;;4.33;;
19739;SDS011;10027;51.066;13.768;2022-07-01T03:11:48;6.40;;;4.40;;
19739;SDS011;10027;51.066;13.768;2022-07-01T03:14:15;7.80;;;4.93;;
19739;SDS011;10027;51.066;13.768;2022-07-01T03:16:42;6.13;;;4.40;;
19739;SDS011;10027;51.066;13.768;2022-07-01T03:19:10;6.67;;;4.53;;
19739;SDS011;10027;51.066;13.768;2022-07-01T03:21:37;6.60;;;4.60;;
19739;SDS011;10027;51.066;13.768;2022-07-01T03:24:04;7.17;;;4.80;;
19739;SDS011;10027;51.066;13.768;2022-07-01T03:26:31;6.70;;;4.23;;
19739;SDS011;10027;51.066;13.768;2022-07-01T03:29:03;7.47;;;4.70;;
19739;SDS011;10027;51.066;13.768;2022-07-01T03:31:31;7.47;;;4.67;;
19739;SDS011;10027;51.066;13.768;2022-07-01T03:33:58;8.77;;;4.53;;
19739;SDS011;10027;51.066;13.768;2022-07-01T03:36:25;6.13;;;4.47;;
19739;SDS011;10027;51.066;13.768;2022-07-01T03:38:52;6.90;;;4.30;;
19739;SDS011;10027;51.066;13.768;2022-07-01T03:41:19;6.17;;;4.47;;
19739;SDS011;10027;51.066;13.768;2022-07-01T03:43:46;5.83;;;4.33;;
19739;SDS011;10027;51.066;13.768;2022-07-01T03:46:14;4.87;;;4.00;;
19739;SDS011;10027;51.066;13.768;2022-07-01T03:48:41;7.43;;;4.57;;
19739;SDS011;10027;51.066;13.768;2022-07-01T03:51:08;6.77;;;4.50;;
19739;SDS011;10027;51.066;13.768;2022-07-01T03:53:35;7.73;;;4.13;;
19739;SDS011;10027;51.066;13.768;2022-07-01T03:56:21;8.70;;;4.50;;
19739;SDS011;10027;51.066;13.768;2022-07-01T03:58:48;8.97;;;4.93;;
19739;SDS011;10027;51.066;13.768;2022-07-01T04:01:15;6.70;;;4.93;;
19739;SDS011;10027;51.066;13.768;2022-07-01T04:03:43;8.10;;;4.43;;
19739;SDS011;10027;51.066;13.768;2022-07-01T04:06:10;6.17;;;4.37;;
19739;SDS011;10027;51.066;13.768;2022-07-01T04:08:37;5.53;;;4.43;;
19739;SDS011;10027;51.066;13.768;2022-07-01T04:11:04;6.70;;;4.47;;
19739;SDS011;10027;51.066;13.768;2022-07-01T04:13:35;7.77;;;4.63;;
19739;SDS011;10027;51.066;13.768;2022-07-01T04:16:05;6.77;;;4.63;;
19739;SDS011;10027;51.066;13.768;2022-07-01T04:18:33;7.60;;;5.20;;
19739;SDS011;10027;51.066;13.768;2022-07-01T04:21:00;9.47;;;5.17;;
19739;SDS011;10027;51.066;13.768;2022-07-01T04:23:46;6.83;;;5.03;;
19739;SDS011;10027;51.066;13.768;2022-07-01T04:26:13;8.13;;;4.60;;
19739;SDS011;10027;51.066;13.768;2022-07-01T04:29:02;6.60;;;4.63;;
19739;SDS011;10027;51.066;13.768;2022-07-01T04:31:30;5.83;;;4.27;;
19739;SDS011;10027;51.066;13.768;2022-07-01T04:33:57;6.93;;;4.50;;
19739;SDS011;10027;51.066;13.768;2022-07-01T04:36:24;6.53;;;4.87;;
19739;SDS011;10027;51.066;13.768;2022-07-01T04:38:52;6.10;;;4.77;;
19739;SDS011;10027;51.066;13.768;2022-07-01T04:41:19;6.57;;;4.63;;
19739;SDS011;10027;51.066;13.768;2022-07-01T04:44:05;6.40;;;4.70;;
19739;SDS011;10027;51.066;13.768;2022-07-01T04:46:32;7.17;;;5.07;;
19739;SDS011;10027;51.066;13.768;2022-07-01T04:49:00;9.23;;;4.60;;
19739;SDS011;10027;51.066;13.768;2022-07-01T04:51:27;5.63;;;4.30;;
19739;SDS011;10027;51.066;13.768;2022-07-01T04:53:55;6.23;;;4.47;;
19739;SDS011;10027;51.066;13.768;2022-07-01T04:56:22;7.77;;;4.93;;
19739;SDS011;10027;51.066;13.768;2022-07-01T04:58:49;5.63;;;4.20;;
19739;SDS011;10027;51.066;13.768;2022-07-01T05:01:16;9.10;;;4.67;;
19739;SDS011;10027;51.066;13.768;2022-07-01T05:03:43;6.13;;;4.53;;
19739;SDS011;10027;51.066;13.768;2022-07-01T05:06:11;6.57;;;4.63;;
19739;SDS011;10027;51.066;13.768;2022-07-01T05:08:38;6.70;;;4.70;;
19739;SDS011;10027;51.066;13.768;2022-07-01T05:11:05;6.83;;;4.73;;
19739;SDS011;10027;51.066;13.768;2022-07-01T05:13:32;6.60;;;4.90;;
19739;SDS011;10027;51.066;13.768;2022-07-01T05:16:00;6.23;;;5.10;;
19739;SDS011;10027;51.066;13.768;2022-07-01T05:18:27;5.27;;;4.50;;
19739;SDS011;10027;51.066;13.768;2022-07-01T05:21:13;5.87;;;4.57;;
19739;SDS011;10027;51.066;13.768;2022-07-01T05:23:59;7.33;;;4.50;;
19739;SDS011;10027;51.066;13.768;2022-07-01T05:26:26;6.47;;;4.60;;
19739;SDS011;10027;51.066;13.768;2022-07-01T05:28:53;5.63;;;4.20;;
19739;SDS011;10027;51.066;13.768;2022-07-01T05:31:21;6.90;;;4.70;;
19739;SDS011;10027;51.066;13.768;2022-07-01T05:33:48;5.53;;;4.37;;
19739;SDS011;10027;51.066;13.768;2022-07-01T05:36:15;6.00;;;4.30;;
19739;SDS011;10027;51.066;13.768;2022-07-01T05:38:43;5.40;;;4.00;;
19739;SDS011;10027;51.066;13.768;2022-07-01T05:41:10;7.00;;;4.57;;
19739;SDS011;10027;51.066;13.768;2022-07-01T05:43:37;5.07;;;3.80;;
19739;SDS011;10027;51.066;13.768;2022-07-01T05:46:04;4.70;;;3.80;;
19739;SDS011;10027;51.066;13.768;2022-07-01T05:48:32;6.17;;;3.57;;
19739;SDS011;10027;51.066;13.768;2022-07-01T05:50:59;5.70;;;4.20;;
19739;SDS011;10027;51.066;13.768;2022-07-01T05:53:26;6.37;;;4.40;;
19739;SDS011;10027;51.066;13.768;2022-07-01T05:55:53;6.37;;;4.17;;
19739;SDS011;10027;51.066;13.768;2022-07-01T05:58:20;4.87;;;4.20;;
19739;SDS011;10027;51.066;13.768;2022-07-01T06:00:47;5.50;;;4.37;;
19739;SDS011;10027;51.066;13.768;2022-07-01T06:03:15;6.60;;;4.60;;
19739;SDS011;10027;51.066;13.768;2022-07-01T06:05:42;16.07;;;6.10;;
19739;SDS011;10027;51.066;13.768;2022-07-01T06:08:09;6.17;;;4.57;;
19739;SDS011;10027;51.066;13.768;2022-07-01T06:10:36;5.83;;;4.90;;
19739;SDS011;10027;51.066;13.768;2022-07-01T06:13:04;6.27;;;4.60;;
19739;SDS011;10027;51.066;13.768;2022-07-01T06:15:32;8.13;;;4.83;;
19739;SDS011;10027;51.066;13.768;2022-07-01T06:17:59;7.10;;;5.30;;
19739;SDS011;10027;51.066;13.768;2022-07-01T06:20:26;8.13;;;5.63;;
19739;SDS011;10027;51.066;13.768;2022-07-01T06:22:54;8.53;;;6.17;;
19739;SDS011;10027;51.066;13.768;2022-07-01T06:25:21;9.93;;;6.67;;
19739;SDS011;10027;51.066;13.768;2022-07-01T06:27:49;10.50;;;7.40;;
19739;SDS011;10027;51.066;13.768;2022-07-01T06:30:16;11.27;;;7.13;;
19739;SDS011;10027;51.066;13.768;2022-07-01T06:32:43;11.07;;;7.70;;
19739;SDS011;10027;51.066;13.768;2022-07-01T06:35:10;10.13;;;7.47;;
19739;SDS011;10027;51.066;13.768;2022-07-01T06:37:37;12.13;;;8.57;;
19739;SDS011;10027;51.066;13.768;2022-07-01T06:40:11;12.37;;;8.77;;
19739;SDS011;10027;51.066;13.768;2022-07-01T06:42:38;15.50;;;9.13;;
19739;SDS011;10027;51.066;13.768;2022-07-01T06:45:05;12.03;;;9.93;;
19739;SDS011;10027;51.066;13.768;2022-07-01T06:47:33;12.73;;;10.07;;
19739;SDS011;10027;51.066;13.768;2022-07-01T06:50:00;12.83;;;10.60;;
19739;SDS011;10027;51.066;13.768;2022-07-01T06:52:30;13.33;;;10.07;;
19739;SDS011;10027;51.066;13.768;2022-07-01T06:54:57;13.70;;;10.50;;
19739;SDS011;10027;51.066;13.768;2022-07-01T06:57:24;14.20;;;10.77;;
19739;SDS011;10027;51.066;13.768;2022-07-01T06:59:51;14.03;;;10.63;;
19739;SDS011;10027;51.066;13.768;2022-07-01T07:02:19;13.53;;;10.13;;
19739;SDS011;10027;51.066;13.768;2022-07-01T07:04:52;11.33;;;10.07;;
19739;SDS011;10027;51.066;13.768;2022-07-01T07:07:26;12.23;;;10.20;;
19739;SDS011;10027;51.066;13.768;2022-07-01T07:09:53;14.47;;;10.70;;
19739;SDS011;10027;51.066;13.768;2022-07-01T07:12:23;11.40;;;9.90;;
19739;SDS011;10027;51.066;13.768;2022-07-01T07:14:50;12.43;;;9.87;;
19739;SDS011;10027;51.066;13.768;2022-07-01T07:17:17;11.57;;;9.70;;
19739;SDS011;10027;51.066;13.768;2022-07-01T07:19:45;16.17;;;9.90;;
19739;SDS011;10027;51.066;13.768;2022-07-01T07:22:12;10.30;;;9.20;;
19739;SDS011;10027;51.066;13.768;2022-07-01T07:24:39;11.23;;;9.07;;
19739;SDS011;10027;51.066;13.768;2022-07-01T07:27:07;12.20;;;9.47;;
19739;SDS011;10027;51.066;13.768;2022-07-01T07:29:35;13.73;;;9.27;;
19739;SDS011;10027;51.066;13.768;2022-07-01T07:32:02;15.03;;;9.13;;
19739;SDS011;10027;51.066;13.768;2022-07-01T07:34:29;12.13;;;9.37;;
19739;SDS011;10027;51.066;13.768;2022-07-01T07:36:56;12.10;;;8.87;;
19739;SDS011;10027;51.066;13.768;2022-07-01T07:39:23;10.63;;;8.50;;
19739;SDS011;10027;51.066;13.768;2022-07-01T07:41:57;12.10;;;9.50;;
19739;SDS011;10027;51.066;13.768;2022-07-01T07:44:25;10.00;;;8.07;;
19739;SDS011;10027;51.066;13.768;2022-07-01T07:46:52;8.93;;;7.90;;
19739;SDS011;10027;51.066;13.768;2022-07-01T07:49:19;9.80;;;8.40;;
19739;SDS011;10027;51.066;13.768;2022-07-01T07:51:47;13.43;;;8.77;;
19739;SDS011;10027;51.066;13.768;2022-07-01T07:54:14;12.83;;;7.43;;
19739;SDS011;10027;51.066;13.768;2022-07-01T07:56:41;13.23;;;8.67;;
19739;SDS011;10027;51.066;13.768;2022-07-01T07:59:11;11.83;;;8.37;;
19739;SDS011;10027;51.066;13.768;2022-07-01T08:01:38;13.13;;;9.73;;
19739;SDS011;10027;51.066;13.768;2022-07-01T08:04:05;12.73;;;9.00;;
19739;SDS011;10027;51.066;13.768;2022-07-01T08:06:34;13.37;;;9.33;;
19739;SDS011;10027;51.066;13.768;2022-07-01T08:09:01;11.67;;;9.03;;
19739;SDS011;10027;51.066;13.768;2022-07-01T08:11:28;13.77;;;8.97;;
19739;SDS011;10027;51.066;13.768;2022-07-01T08:13:58;11.10;;;8.37;;
19739;SDS011;10027;51.066;13.768;2022-07-01T08:16:25;12.60;;;8.60;;
19739;SDS011;10027;51.066;13.768;2022-07-01T08:18:52;12.17;;;8.17;;
19739;SDS011;10027;51.066;13.768;2022-07-01T08:21:20;10.43;;;8.03;;
19739;SDS011;10027;51.066;13.768;2022-07-01T08:23:47;9.57;;;8.23;;
19739;SDS011;10027;51.066;13.768;2022-07-01T08:26:14;12.13;;;7.97;;
19739;SDS011;10027;51.066;13.768;2022-07-01T08:28:43;11.33;;;8.00;;
19739;SDS011;10027;51.066;13.768;2022-07-01T08:31:10;13.00;;;8.00;;
19739;SDS011;10027;51.066;13.768;2022-07-01T08:33:37;10.03;;;7.83;;
19739;SDS011;10027;51.066;13.768;2022-07-01T08:36:05;10.47;;;7.83;;
19739;SDS011;10027;51.066;13.768;2022-07-01T08:38:33;11.47;;;7.93;;
19739;SDS011;10027;51.066;13.768;2022-07-01T08:41:01;11.30;;;7.67;;
19739;SDS011;10027;51.066;13.768;2022-07-01T08:43:28;13.33;;;8.43;;
19739;SDS011;10027;51.066;13.768;2022-07-01T08:45:59;10.87;;;8.13;;
19739;SDS011;10027;51.066;13.768;2022-07-01T08:48:31;14.13;;;8.83;;
19739;SDS011;10027;51.066;13.768;2022-07-01T08:50:58;14.07;;;8.53;;
19739;SDS011;10027;51.066;13.768;2022-07-01T08:53:30;11.97;;;8.37;;
19739;SDS011;10027;51.066;13.768;2022-07-01T08:56:00;12.43;;;8.57;;
19739;SDS011;10027;51.066;13.768;2022-07-01T08:58:47;10.90;;;8.10;;
19739;SDS011;10027;51.066;13.768;2022-07-01T09:01:21;9.00;;;7.50;;
19739;SDS011;10027;51.066;13.768;2022-07-01T09:03:49;9.63;;;7.37;;
19739;SDS011;10027;51.066;13.768;2022-07-01T09:08:46;10.23;;;7.67;;
19739;SDS011;10027;51.066;13.768;2022-07-01T09:11:14;10.47;;;7.30;;
19739;SDS011;10027;51.066;13.768;2022-07-01T09:13:41;10.03;;;7.20;;
19739;SDS011;10027;51.066;13.768;2022-07-01T09:16:14;10.67;;;7.23;;
19739;SDS011;10027;51.066;13.768;2022-07-01T09:19:03;11.80;;;7.67;;
19739;SDS011;10027;51.066;13.768;2022-07-01T09:21:31;11.03;;;7.43;;
19739;SDS011;10027;51.066;13.768;2022-07-01T09:23:59;10.70;;;6.87;;
19739;SDS011;10027;51.066;13.768;2022-07-01T09:26:29;11.77;;;7.33;;
19739;SDS011;10027;51.066;13.768;2022-07-01T09:28:57;10.90;;;7.30;;
19739;SDS011;10027;51.066;13.768;2022-07-01T09:31:32;8.17;;;7.07;;
19739;SDS011;10027;51.066;13.768;2022-07-01T09:34:05;11.30;;;7.53;;
19739;SDS011;10027;51.066;13.768;2022-07-01T09:36:39;10.57;;;6.87;;
19739;SDS011;10027;51.066;13.768;2022-07-01T09:39:06;10.47;;;7.13;;
19739;SDS011;10027;51.066;13.768;2022-07-01T09:41:54;10.00;;;7.00;;
19739;SDS011;10027;51.066;13.768;2022-07-01T09:44:22;12.00;;;7.70;;
19739;SDS011;10027;51.066;13.768;2022-07-01T09:46:56;10.20;;;6.80;;
19739;SDS011;10027;51.066;13.768;2022-07-01T09:49:23;9.83;;;7.10;;
19739;SDS011;10027;51.066;13.768;2022-07-01T09:51:51;8.97;;;6.70;;
19739;SDS011;10027;51.066;13.768;2022-07-01T09:54:18;10.30;;;6.90;;
19739;SDS011;10027;51.066;13.768;2022-07-01T09:56:46;7.70;;;6.27;;
19739;SDS011;10027;51.066;13.768;2022-07-01T09:59:16;9.53;;;6.90;;
19739;SDS011;10027;51.066;13.768;2022-07-01T10:01:44;8.53;;;6.60;;
19739;SDS011;10027;51.066;13.768;2022-07-01T10:04:12;9.10;;;6.97;;
19739;SDS011;10027;51.066;13.768;2022-07-01T10:06:42;8.90;;;6.73;;
19739;SDS011;10027;51.066;13.768;2022-07-01T10:09:21;7.17;;;6.47;;
19739;SDS011;10027;51.066;13.768;2022-07-01T10:14:37;9.77;;;6.70;;
19739;SDS011;10027;51.066;13.768;2022-07-01T10:17:06;8.93;;;6.43;;
19739;SDS011;10027;51.066;13.768;2022-07-01T10:19:33;7.93;;;5.80;;
19739;SDS011;10027;51.066;13.768;2022-07-01T10:22:23;7.13;;;5.83;;
19739;SDS011;10027;51.066;13.768;2022-07-01T10:24:47;7.30;;;6.20;;
19739;SDS011;10027;51.066;13.768;2022-07-01T10:27:22;7.53;;;6.13;;
19739;SDS011;10027;51.066;13.768;2022-07-01T10:29:49;8.93;;;6.10;;
19739;SDS011;10027;51.066;13.768;2022-07-01T10:32:41;7.90;;;5.90;;
19739;SDS011;10027;51.066;13.768;2022-07-01T10:35:29;7.00;;;6.07;;
19739;SDS011;10027;51.066;13.768;2022-07-01T10:38:02;7.70;;;5.90;;
19739;SDS011;10027;51.066;13.768;2022-07-01T10:40:43;7.77;;;5.70;;
19739;SDS011;10027;51.066;13.768;2022-07-01T10:43:15;6.40;;;5.37;;
19739;SDS011;10027;51.066;13.768;2022-07-01T10:45:54;5.77;;;5.13;;
19739;SDS011;10027;51.066;13.768;2022-07-01T10:48:22;6.07;;;5.47;;
19739;SDS011;10027;51.066;13.768;2022-07-01T10:50:50;6.10;;;5.30;;
19739;SDS011;10027;51.066;13.768;2022-07-01T10:53:18;6.67;;;5.23;;
19739;SDS011;10027;51.066;13.768;2022-07-01T10:55:46;7.63;;;5.40;;
19739;SDS011;10027;51.066;13.768;2022-07-01T10:58:16;5.57;;;4.93;;
19739;SDS011;10027;51.066;13.768;2022-07-01T11:00:48;6.73;;;5.83;;
19739;SDS011;10027;51.066;13.768;2022-07-01T11:03:21;7.17;;;5.70;;
19739;SDS011;10027;51.066;13.768;2022-07-01T11:05:50;7.50;;;5.53;;
19739;SDS011;10027;51.066;13.768;2022-07-01T11:08:17;7.63;;;5.70;;
19739;SDS011;10027;51.066;13.768;2022-07-01T11:10:54;5.80;;;4.90;;
19739;SDS011;10027;51.066;13.768;2022-07-01T11:13:22;6.83;;;4.83;;
19739;SDS011;10027;51.066;13.768;2022-07-01T11:15:49;5.53;;;4.90;;
19739;SDS011;10027;51.066;13.768;2022-07-01T11:18:17;6.70;;;5.07;;
19739;SDS011;10027;51.066;13.768;2022-07-01T11:20:47;5.43;;;4.73;;
19739;SDS011;10027;51.066;13.768;2022-07-01T11:23:14;4.63;;;4.17;;
19739;SDS011;10027;51.066;13.768;2022-07-01T11:25:42;4.83;;;4.33;;
19739;SDS011;10027;51.066;13.768;2022-07-01T11:28:10;4.97;;;4.27;;
19739;SDS011;10027;51.066;13.768;2022-07-01T11:30:38;4.83;;;3.90;;
19739;SDS011;10027;51.066;13.768;2022-07-01T11:33:07;3.63;;;3.30;;
19739;SDS011;10027;51.066;13.768;2022-07-01T11:35:35;3.40;;;3.10;;
19739;SDS011;10027;51.066;13.768;2022-07-01T11:38:22;3.77;;;3.37;;
19739;SDS011;10027;51.066;13.768;2022-07-01T11:41:09;3.27;;;3.07;;
19739;SDS011;10027;51.066;13.768;2022-07-01T11:43:37;4.17;;;3.80;;
19739;SDS011;10027;51.066;13.768;2022-07-01T11:46:05;5.10;;;4.70;;
19739;SDS011;10027;51.066;13.768;2022-07-01T11:48:34;5.30;;;4.80;;
19739;SDS011;10027;51.066;13.768;2022-07-01T11:51:07;5.57;;;5.07;;
19739;SDS011;10027;51.066;13.768;2022-07-01T11:53:35;5.13;;;4.73;;
19739;SDS011;10027;51.066;13.768;2022-07-01T11:56:03;5.60;;;5.10;;
19739;SDS011;10027;51.066;13.768;2022-07-01T12:03:52;6.03;;;5.43;;
19739;SDS011;10027;51.066;13.768;2022-07-01T12:06:20;5.53;;;5.03;;
19739;SDS011;10027;51.066;13.768;2022-07-01T12:08:49;4.93;;;4.43;;
19739;SDS011;10027;51.066;13.768;2022-07-01T12:11:17;5.50;;;3.80;;
19739;SDS011;10027;51.066;13.768;2022-07-01T12:13:47;4.40;;;4.00;;
19739;SDS011;10027;51.066;13.768;2022-07-01T12:16:15;4.03;;;3.73;;
19739;SDS011;10027;51.066;13.768;2022-07-01T12:18:52;4.03;;;3.73;;
19739;SDS011;10027;51.066;13.768;2022-07-01T12:21:19;3.90;;;3.50;;
19739;SDS011;10027;51.066;13.768;2022-07-01T12:24:10;4.07;;;3.77;;
19739;SDS011;10027;51.066;13.768;2022-07-01T12:26:36;3.70;;;3.40;;
19739;SDS011;10027;51.066;13.768;2022-07-01T12:29:13;4.60;;;3.80;;
19739;SDS011;10027;51.066;13.768;2022-07-01T12:31:41;4.47;;;4.07;;
19739;SDS011;10027;51.066;13.768;2022-07-01T12:34:08;4.60;;;4.20;;
19739;SDS011;10027;51.066;13.768;2022-07-01T12:36:35;6.17;;;4.07;;
19739;SDS011;10027;51.066;13.768;2022-07-01T12:39:03;4.27;;;3.87;;
19739;SDS011;10027;51.066;13.768;2022-07-01T12:41:35;4.23;;;3.63;;
19739;SDS011;10027;51.066;13.768;2022-07-01T12:44:26;3.67;;;3.37;;
19739;SDS011;10027;51.066;13.768;2022-07-01T12:46:54;3.13;;;2.90;;
19739;SDS011;10027;51.066;13.768;2022-07-01T12:49:22;3.07;;;2.87;;
19739;SDS011;10027;51.066;13.768;2022-07-01T12:51:49;3.03;;;2.83;;
19739;SDS011;10027;51.066;13.768;2022-07-01T12:54:30;2.90;;;2.70;;
19739;SDS011;10027;51.066;13.768;2022-07-01T12:56:58;3.93;;;2.73;;
19739;SDS011;10027;51.066;13.768;2022-07-01T12:59:25;2.80;;;2.60;;
19739;SDS011;10027;51.066;13.768;2022-07-01T13:01:53;2.80;;;2.50;;
19739;SDS011;10027;51.066;13.768;2022-07-01T13:04:26;2.83;;;2.63;;
19739;SDS011;10027;51.066;13.768;2022-07-01T13:06:53;2.67;;;2.47;;
19739;SDS011;10027;51.066;13.768;2022-07-01T13:09:20;3.30;;;2.40;;
19739;SDS011;10027;51.066;13.768;2022-07-01T13:11:48;2.67;;;2.30;;
19739;SDS011;10027;51.066;13.768;2022-07-01T13:14:15;2.40;;;2.20;;
19739;SDS011;10027;51.066;13.768;2022-07-01T13:16:42;2.70;;;2.50;;
19739;SDS011;10027;51.066;13.768;2022-07-01T13:19:09;2.77;;;2.57;;
19739;SDS011;10027;51.066;13.768;2022-07-01T13:21:36;3.40;;;2.67;;
19739;SDS011;10027;51.066;13.768;2022-07-01T13:24:04;2.33;;;2.13;;
19739;SDS011;10027;51.066;13.768;2022-07-01T13:26:51;2.20;;;2.00;;
19739;SDS011;10027;51.066;13.768;2022-07-01T13:29:18;2.20;;;2.00;;
19739;SDS011;10027;51.066;13.768;2022-07-01T13:31:52;1.83;;;1.73;;
19739;SDS011;10027;51.066;13.768;2022-07-01T13:34:20;2.20;;;2.00;;
19739;SDS011;10027;51.066;13.768;2022-07-01T13:36:47;2.47;;;2.27;;
19739;SDS011;10027;51.066;13.768;2022-07-01T13:39:14;2.73;;;2.53;;
19739;SDS011;10027;51.066;13.768;2022-07-01T13:41:42;3.17;;;2.73;;
19739;SDS011;10027;51.066;13.768;2022-07-01T13:44:09;4.07;;;3.60;;
19739;SDS011;10027;51.066;13.768;2022-07-01T13:46:36;4.60;;;4.20;;
19739;SDS011;10027;51.066;13.768;2022-07-01T13:49:11;4.47;;;4.07;;
19739;SDS011;10027;51.066;13.768;2022-07-01T13:51:39;4.43;;;4.03;;
19739;SDS011;10027;51.066;13.768;2022-07-01T13:54:06;4.70;;;4.30;;
19739;SDS011;10027;51.066;13.768;2022-07-01T13:56:33;4.53;;;4.13;;
19739;SDS011;10027;51.066;13.768;2022-07-01T13:59:01;4.70;;;4.30;;
19739;SDS011;10027;51.066;13.768;2022-07-01T14:01:28;4.63;;;4.23;;
19739;SDS011;10027;51.066;13.768;2022-07-01T14:03:55;4.80;;;4.40;;
19739;SDS011;10027;51.066;13.768;2022-07-01T14:06:23;4.30;;;3.90;;
19739;SDS011;10027;51.066;13.768;2022-07-01T14:08:50;4.73;;;4.20;;
19739;SDS011;10027;51.066;13.768;2022-07-01T14:11:17;4.73;;;4.30;;
19739;SDS011;10027;51.066;13.768;2022-07-01T14:13:44;4.47;;;4.07;;
19739;SDS011;10027;51.066;13.768;2022-07-01T14:16:11;5.40;;;4.03;;
19739;SDS011;10027;51.066;13.768;2022-07-01T14:18:39;5.00;;;4.50;;
19739;SDS011;10027;51.066;13.768;2022-07-01T14:21:11;5.17;;;4.13;;
19739;SDS011;10027;51.066;13.768;2022-07-01T14:23:39;5.53;;;4.40;;
19739;SDS011;10027;51.066;13.768;2022-07-01T14:26:06;4.83;;;4.33;;
19739;SDS011;10027;51.066;13.768;2022-07-01T14:28:33;5.00;;;4.50;;
19739;SDS011;10027;51.066;13.768;2022-07-01T14:31:00;4.73;;;4.23;;
19739;SDS011;10027;51.066;13.768;2022-07-01T14:33:27;4.40;;;3.90;;
19739;SDS011;10027;51.066;13.768;2022-07-01T14:35:55;4.30;;;3.90;;
19739;SDS011;10027;51.066;13.768;2022-07-01T14:38:22;3.30;;;3.10;;
19739;SDS011;10027;51.066;13.768;2022-07-01T14:40:49;2.93;;;2.63;;
19739;SDS011;10027;51.066;13.768;2022-07-01T14:43:16;2.40;;;2.20;;
19739;SDS011;10027;51.066;13.768;2022-07-01T14:45:44;2.30;;;2.10;;
19739;SDS011;10027;51.066;13.768;2022-07-01T14:48:12;2.00;;;1.90;;
19739;SDS011;10027;51.066;13.768;2022-07-01T14:50:40;1.60;;;1.50;;
19739;SDS011;10027;51.066;13.768;2022-07-01T14:53:08;2.23;;;1.50;;